Decoded Metar for ULMM (MURMANSK in RUSSIA) (IATA:MMK) | Meteo·Mobile Aviation Weather
aviador You're here:

ULMM Decoded Metar

MURMANSK in RUSSIA
Report Time2018-08-20 18:30:00
UTC Time2018-08-20 18:45:02
Flight Rules vfr VFR
Wind270° at 2 kt
W.Decomp.*RWY 31: 1.1 kt HW 1.6 kt LCW
W.Rank270° ranks 8
Current wind is below 270° avg. (5.9)
Visibility9999 m
Phenomena:Light Shower Rain
Clouds:Scattered CB 040 Hf
Expected CloudBase > 400 ft AGL from Temp-Dew spread
CeilingNone
Temp10°C (ISA -5)
Dew Point09°C (94% RH)
AAT9.1°C
QNH1001 hPa
Density Alt174 ft
Elevation167 ft
Report Wrong Elevation
Raw Report
ULMM 201830Z 27001MPS 9999 -SHRA SCT040CB 10/09 Q1001 R31/290055
NOSIG RMK QFE743=

Extra information for ULMM:More info

Metar Taf Metar & Taf Last 4 Metars F.Rules Stats Wind Profile Meteogram Temp Stats Airport Information Weather charts Add Link Nearby VenuesMetar ALERT Operation Metar Decoded Social comments